Time;durP1;ratioP1;P1;durP2;ratioP2;P2;SDS_P1;SDS_P2;PMS_P1;PMS_P2;Temp;Humidity;BMP_temperature;BMP_pressure;BME280_temperature;BME280_humidity;BME280_pressure;Samples;Min_cycle;Max_cycle;Signal;HPM_P1;HPM_P2
2022/08/24 00:01:14;;;;;;;13.30;10.40;;;;;;;;;;4974583;28;20029;-52
2022/08/24 00:03:41;;;;;;;13.77;10.57;;;;;;;;;;4974843;28;20027;-46
2022/08/24 00:06:10;;;;;;;13.15;10.60;;;;;;;;;;4974840;28;20035;-46
2022/08/24 00:08:37;;;;;;;13.40;10.15;;;;;;;;;;4974460;28;20582;-48
2022/08/24 00:11:02;;;;;;;13.77;10.45;;;;;;;;;;4974510;28;20034;-46
2022/08/24 00:13:28;;;;;;;13.52;10.32;;;;;;;;;;4974442;28;20031;-47
2022/08/24 00:15:54;;;;;;;13.43;9.80;;;;;;;;;;4974325;28;20030;-47
2022/08/24 00:18:20;;;;;;;14.00;10.40;;;;;;;;;;4974337;28;20046;-46
2022/08/24 00:20:45;;;;;;;16.73;10.07;;;;;;;;;;4974258;28;20019;-48
2022/08/24 00:23:11;;;;;;;14.63;10.43;;;;;;;;;;4974252;28;20063;-49
2022/08/24 00:25:37;;;;;;;13.07;10.27;;;;;;;;;;4974125;28;20442;-48
2022/08/24 00:28:04;;;;;;;12.90;9.95;;;;;;;;;;4973941;28;20030;-47
2022/08/24 00:30:31;;;;;;;11.00;9.60;;;;;;;;;;4974105;28;20027;-51
2022/08/24 00:32:56;;;;;;;13.32;10.50;;;;;;;;;;4974115;28;20085;-51
2022/08/24 00:35:23;;;;;;;15.45;10.57;;;;;;;;;;4974069;28;20035;-47
2022/08/24 00:37:49;;;;;;;14.27;9.70;;;;;;;;;;4974304;28;20414;-49
2022/08/24 00:40:32;;;;;;;12.07;10.10;;;;;;;;;;4974235;28;20035;-47
2022/08/24 00:43:02;;;;;;;12.57;10.73;;;;;;;;;;4974016;28;20150;-49
2022/08/24 00:45:28;;;;;;;12.43;9.65;;;;;;;;;;4974235;28;20049;-47
2022/08/24 00:48:05;;;;;;;12.73;10.70;;;;;;;;;;4973937;28;20031;-47
2022/08/24 00:50:48;;;;;;;15.45;10.45;;;;;;;;;;4974179;28;20035;-46
2022/08/24 00:53:27;;;;;;;14.13;10.38;;;;;;;;;;4973775;28;20398;-47
2022/08/24 00:55:57;;;;;;;15.57;9.75;;;;;;;;;;4973855;28;20492;-47
2022/08/24 00:58:35;;;;;;;14.13;11.13;;;;;;;;;;4974075;28;20035;-49
2022/08/24 01:01:04;;;;;;;15.70;10.75;;;;;;;;;;4973754;28;20030;-49
2022/08/24 01:03:31;;;;;;;13.07;11.50;;;;;;;;;;4973706;28;20482;-47
2022/08/24 01:05:56;;;;;;;13.40;10.35;;;;;;;;;;4973863;28;20034;-48
2022/08/24 01:08:23;;;;;;;11.23;9.90;;;;;;;;;;4973557;28;20023;-46
2022/08/24 01:10:53;;;;;;;14.65;10.55;;;;;;;;;;4973636;28;20441;-50
2022/08/24 01:13:20;;;;;;;15.18;11.55;;;;;;;;;;4973592;28;20484;-48
2022/08/24 01:15:49;;;;;;;18.67;11.65;;;;;;;;;;4973675;28;20493;-51
2022/08/24 01:21:11;;;;;;;13.52;11.48;;;;;;;;;;4973904;28;20046;-50
2022/08/24 01:23:46;;;;;;;12.13;10.88;;;;;;;;;;4973563;28;20417;-51
2022/08/24 01:26:18;;;;;;;13.88;11.35;;;;;;;;;;4973384;28;20105;-46
2022/08/24 01:28:48;;;;;;;15.65;11.68;;;;;;;;;;4973364;28;20070;-47
2022/08/24 01:31:15;;;;;;;12.25;10.63;;;;;;;;;;4973744;28;20030;-49
2022/08/24 01:33:40;;;;;;;16.55;11.30;;;;;;;;;;4973686;28;20030;-47
2022/08/24 01:36:21;;;;;;;14.38;11.20;;;;;;;;;;4973669;28;20034;-46
2022/08/24 01:38:48;;;;;;;13.80;11.25;;;;;;;;;;4973414;28;20039;-48
2022/08/24 01:41:14;;;;;;;13.40;10.98;;;;;;;;;;4976265;28;20069;-46
2022/08/24 01:43:40;;;;;;;12.85;11.07;;;;;;;;;;4977179;28;20027;-48
2022/08/24 01:46:05;;;;;;;13.02;11.23;;;;;;;;;;4977097;28;20031;-48
2022/08/24 01:48:31;;;;;;;15.20;10.73;;;;;;;;;;4976963;28;20027;-46
2022/08/24 01:50:56;;;;;;;12.40;10.60;;;;;;;;;;4977109;28;20031;-47
2022/08/24 01:53:22;;;;;;;13.32;10.65;;;;;;;;;;4976902;28;20039;-48
2022/08/24 01:55:47;;;;;;;14.52;11.57;;;;;;;;;;4977240;28;20030;-49
2022/08/24 01:58:13;;;;;;;13.13;10.95;;;;;;;;;;4977196;28;20116;-46
2022/08/24 02:00:39;;;;;;;14.68;11.38;;;;;;;;;;4976870;28;20158;-49
2022/08/24 02:03:05;;;;;;;12.75;10.93;;;;;;;;;;4976857;28;20034;-49
2022/08/24 02:05:31;;;;;;;13.05;10.73;;;;;;;;;;4977123;28;20033;-48
2022/08/24 02:07:57;;;;;;;18.60;11.65;;;;;;;;;;4976698;28;20476;-47
2022/08/24 02:10:23;;;;;;;21.67;11.43;;;;;;;;;;4976941;28;20031;-48
2022/08/24 02:12:56;;;;;;;14.32;11.10;;;;;;;;;;4976587;28;20066;-50
2022/08/24 02:15:33;;;;;;;13.00;11.10;;;;;;;;;;4976900;28;20067;-49
2022/08/24 02:17:59;;;;;;;13.32;10.80;;;;;;;;;;4976864;28;20034;-47
2022/08/24 02:20:24;;;;;;;14.07;10.98;;;;;;;;;;4977039;28;20027;-48
2022/08/24 02:22:52;;;;;;;13.80;10.88;;;;;;;;;;4976742;28;20031;-47
2022/08/24 02:25:18;;;;;;;14.45;10.88;;;;;;;;;;4976201;28;20045;-48
2022/08/24 02:27:44;;;;;;;12.45;10.27;;;;;;;;;;4976363;28;20031;-49
2022/08/24 02:30:10;;;;;;;18.10;11.20;;;;;;;;;;4976530;28;20030;-48
2022/08/24 02:32:35;;;;;;;13.18;10.60;;;;;;;;;;4976878;28;20027;-48
2022/08/24 02:35:01;;;;;;;13.07;10.73;;;;;;;;;;4976553;28;20479;-48
2022/08/24 02:37:26;;;;;;;12.80;10.57;;;;;;;;;;4976223;28;20088;-48
2022/08/24 02:39:52;;;;;;;14.77;10.95;;;;;;;;;;4976190;28;20023;-52
2022/08/24 02:42:17;;;;;;;15.10;10.98;;;;;;;;;;4976427;28;20437;-48
2022/08/24 02:44:43;;;;;;;16.00;10.75;;;;;;;;;;4976330;28;20027;-50
2022/08/24 02:47:09;;;;;;;11.85;10.65;;;;;;;;;;4976278;28;20039;-47
2022/08/24 02:49:35;;;;;;;12.70;10.65;;;;;;;;;;4975936;28;20062;-47
2022/08/24 02:52:02;;;;;;;14.00;10.85;;;;;;;;;;4975366;28;20105;-48
2022/08/24 02:54:27;;;;;;;14.38;10.77;;;;;;;;;;4976214;28;20046;-48
2022/08/24 02:56:53;;;;;;;15.23;11.15;;;;;;;;;;4975860;28;20466;-47
2022/08/24 02:59:19;;;;;;;14.85;11.35;;;;;;;;;;4975782;28;20058;-47
2022/08/24 03:01:45;;;;;;;12.90;11.25;;;;;;;;;;4976126;28;20026;-48
2022/08/24 03:04:11;;;;;;;12.73;10.15;;;;;;;;;;4975981;28;20093;-49
2022/08/24 03:06:37;;;;;;;13.85;11.15;;;;;;;;;;4975963;28;20454;-48
2022/08/24 03:09:03;;;;;;;13.35;10.38;;;;;;;;;;4975881;28;20031;-52
2022/08/24 03:11:28;;;;;;;15.55;10.75;;;;;;;;;;4975870;28;20054;-49
2022/08/24 03:13:55;;;;;;;14.57;11.70;;;;;;;;;;4975889;28;20504;-50
2022/08/24 03:16:20;;;;;;;16.85;10.80;;;;;;;;;;4975761;28;20105;-50
2022/08/24 03:18:46;;;;;;;12.73;11.30;;;;;;;;;;4975739;28;20470;-47
2022/08/24 03:21:11;;;;;;;13.05;10.95;;;;;;;;;;4975725;28;20034;-49
2022/08/24 03:23:37;;;;;;;15.10;11.10;;;;;;;;;;4975643;28;20046;-48
2022/08/24 03:26:03;;;;;;;12.10;10.48;;;;;;;;;;4975055;28;20421;-49
2022/08/24 03:28:28;;;;;;;14.43;11.10;;;;;;;;;;4975538;28;20537;-47
2022/08/24 03:30:54;;;;;;;14.82;11.48;;;;;;;;;;4975467;28;20030;-50
2022/08/24 03:33:19;;;;;;;16.02;11.93;;;;;;;;;;4975453;28;20478;-49
2022/08/24 03:35:45;;;;;;;14.43;11.27;;;;;;;;;;4958239;28;20422;-48
2022/08/24 03:38:12;;;;;;;13.95;11.65;;;;;;;;;;4975331;28;20057;-49
2022/08/24 03:40:38;;;;;;;14.18;11.57;;;;;;;;;;4975064;28;20478;-50
2022/08/24 03:43:04;;;;;;;17.70;12.40;;;;;;;;;;4974982;28;20463;-47
2022/08/24 03:45:29;;;;;;;16.52;11.95;;;;;;;;;;4974914;28;20023;-50
2022/08/24 03:47:55;;;;;;;18.25;13.43;;;;;;;;;;4974678;28;20065;-46
2022/08/24 03:50:22;;;;;;;16.08;11.77;;;;;;;;;;4974623;28;20039;-49
2022/08/24 03:52:49;;;;;;;17.05;11.63;;;;;;;;;;4974785;28;20029;-49
2022/08/24 03:55:15;;;;;;;13.65;11.55;;;;;;;;;;4974985;28;20034;-51
2022/08/24 03:57:40;;;;;;;15.65;12.25;;;;;;;;;;4974599;28;20118;-48
2022/08/24 04:00:10;;;;;;;15.13;11.80;;;;;;;;;;4974690;28;20114;-50
2022/08/24 04:02:36;;;;;;;17.50;13.23;;;;;;;;;;4974518;28;20113;-51
2022/08/24 04:05:03;;;;;;;17.05;12.68;;;;;;;;;;4974489;28;20067;-49
2022/08/24 04:07:30;;;;;;;15.82;12.90;;;;;;;;;;4974793;28;20035;-49
2022/08/24 04:09:55;;;;;;;18.63;12.90;;;;;;;;;;4974360;28;20031;-47
2022/08/24 04:12:22;;;;;;;18.67;12.35;;;;;;;;;;4974367;28;20027;-47
2022/08/24 04:14:50;;;;;;;19.20;13.07;;;;;;;;;;4974353;28;20030;-48
2022/08/24 04:17:17;;;;;;;16.17;12.52;;;;;;;;;;4974219;28;20038;-47
2022/08/24 04:19:56;;;;;;;14.63;11.95;;;;;;;;;;4974347;28;20035;-47
2022/08/24 04:22:24;;;;;;;15.05;12.10;;;;;;;;;;4974827;28;20049;-51
2022/08/24 04:24:50;;;;;;;18.35;13.30;;;;;;;;;;4973500;28;20047;-48
2022/08/24 04:27:15;;;;;;;16.58;12.43;;;;;;;;;;4974456;28;20070;-50
2022/08/24 04:29:42;;;;;;;14.32;11.80;;;;;;;;;;4974347;28;20038;-50
2022/08/24 04:32:08;;;;;;;15.25;12.15;;;;;;;;;;4972391;28;20039;-53
2022/08/24 04:34:34;;;;;;;16.13;11.77;;;;;;;;;;4974209;28;20378;-48
2022/08/24 04:37:00;;;;;;;17.55;11.90;;;;;;;;;;4973951;28;20037;-52
2022/08/24 04:39:26;;;;;;;14.82;11.48;;;;;;;;;;4973998;28;20131;-50
2022/08/24 04:41:51;;;;;;;13.95;11.38;;;;;;;;;;4974107;28;20038;-50
2022/08/24 04:44:17;;;;;;;13.77;11.43;;;;;;;;;;4974123;28;20031;-52
2022/08/24 04:46:43;;;;;;;14.10;11.32;;;;;;;;;;4973789;28;20526;-53
2022/08/24 04:49:09;;;;;;;13.80;11.68;;;;;;;;;;4973706;28;20118;-50
2022/08/24 04:51:35;;;;;;;15.80;10.90;;;;;;;;;;4973992;28;20042;-52
2022/08/24 04:54:00;;;;;;;13.80;10.90;;;;;;;;;;4973847;28;20038;-51
2022/08/24 04:56:26;;;;;;;14.38;10.82;;;;;;;;;;4973601;28;20624;-48
2022/08/24 04:58:54;;;;;;;13.02;11.25;;;;;;;;;;4973970;28;20031;-48
2022/08/24 05:01:23;;;;;;;14.65;11.15;;;;;;;;;;4974263;28;20381;-46
2022/08/24 05:03:51;;;;;;;12.68;10.70;;;;;;;;;;4973626;28;20687;-49
2022/08/24 05:06:19;;;;;;;13.23;10.98;;;;;;;;;;4973936;28;20030;-52
2022/08/24 05:08:46;;;;;;;11.27;10.18;;;;;;;;;;4974422;28;20023;-47
2022/08/24 05:11:12;;;;;;;13.50;10.18;;;;;;;;;;4973786;28;20027;-47
2022/08/24 05:13:37;;;;;;;12.70;10.82;;;;;;;;;;4973682;28;20023;-49
2022/08/24 05:16:12;;;;;;;10.73;9.63;;;;;;;;;;4977929;28;20039;-51
2022/08/24 05:18:39;;;;;;;11.95;10.02;;;;;;;;;;4979967;28;20114;-52
2022/08/24 05:21:14;;;;;;;12.35;10.60;;;;;;;;;;4980465;28;20038;-51
2022/08/24 05:23:41;;;;;;;14.20;10.52;;;;;;;;;;4978624;28;20470;-51
2022/08/24 05:26:19;;;;;;;15.73;10.07;;;;;;;;;;4979557;28;20059;-52
2022/08/24 05:28:46;;;;;;;12.43;9.68;;;;;;;;;;4980089;28;20082;-48
2022/08/24 05:31:15;;;;;;;11.63;10.43;;;;;;;;;;4979848;28;20063;-51
2022/08/24 05:33:40;;;;;;;14.73;10.45;;;;;;;;;;4979741;28;20065;-52
2022/08/24 05:36:16;;;;;;;11.98;9.98;;;;;;;;;;4980039;28;20055;-50
2022/08/24 05:38:42;;;;;;;11.52;9.20;;;;;;;;;;4979800;28;20034;-51
2022/08/24 05:41:08;;;;;;;13.63;9.60;;;;;;;;;;4980131;28;20025;-52
2022/08/24 05:43:34;;;;;;;10.27;9.23;;;;;;;;;;4979866;28;20019;-52
2022/08/24 05:46:00;;;;;;;10.00;8.77;;;;;;;;;;4978953;28;20038;-49
2022/08/24 05:48:26;;;;;;;9.90;8.95;;;;;;;;;;4978992;28;20054;-49
2022/08/24 05:50:54;;;;;;;11.63;9.18;;;;;;;;;;4978117;28;20556;-47
2022/08/24 05:53:19;;;;;;;11.48;8.63;;;;;;;;;;4979577;28;20022;-53
2022/08/24 05:55:45;;;;;;;10.13;9.13;;;;;;;;;;4979713;28;20367;-50
2022/08/24 05:58:11;;;;;;;11.85;9.48;;;;;;;;;;4978294;28;20458;-52
2022/08/24 06:00:37;;;;;;;11.20;8.93;;;;;;;;;;4979394;28;20111;-53
2022/08/24 06:03:03;;;;;;;10.68;8.48;;;;;;;;;;4979772;28;20117;-53
2022/08/24 06:05:28;;;;;;;10.60;8.52;;;;;;;;;;4979874;28;20459;-52
2022/08/24 06:07:54;;;;;;;10.32;8.63;;;;;;;;;;4979431;28;20057;-51
2022/08/24 06:10:19;;;;;;;9.50;8.60;;;;;;;;;;4978795;28;20046;-53
2022/08/24 06:12:45;;;;;;;11.05;8.15;;;;;;;;;;4978123;28;20038;-52
2022/08/24 06:15:12;;;;;;;9.85;8.75;;;;;;;;;;4978098;28;20097;-53
2022/08/24 06:17:38;;;;;;;9.20;8.23;;;;;;;;;;4977929;28;20030;-54
2022/08/24 06:20:04;;;;;;;9.45;7.88;;;;;;;;;;4978187;28;20033;-53
2022/08/24 06:22:30;;;;;;;9.55;8.57;;;;;;;;;;4977972;28;20072;-52
2022/08/24 06:27:40;;;;;;;9.23;8.05;;;;;;;;;;4973853;28;20130;-52
2022/08/24 06:30:08;;;;;;;10.05;8.18;;;;;;;;;;4974744;28;20568;-51
2022/08/24 06:32:35;;;;;;;10.10;8.07;;;;;;;;;;4976074;28;20102;-53
2022/08/24 06:35:00;;;;;;;9.82;8.88;;;;;;;;;;4975129;28;20023;-54
2022/08/24 06:37:26;;;;;;;12.82;8.90;;;;;;;;;;4975335;28;20356;-54
2022/08/24 06:39:56;;;;;;;9.95;8.88;;;;;;;;;;4975126;28;20034;-51
2022/08/24 06:42:28;;;;;;;11.68;8.98;;;;;;;;;;4974389;28;20462;-54
2022/08/24 06:44:53;;;;;;;11.90;8.98;;;;;;;;;;4974139;28;20027;-49
2022/08/24 06:47:20;;;;;;;11.13;8.32;;;;;;;;;;4974259;28;20165;-53
2022/08/24 06:49:46;;;;;;;9.55;8.27;;;;;;;;;;4974627;28;20073;-50
2022/08/24 06:52:11;;;;;;;11.35;9.00;;;;;;;;;;4974620;28;20471;-53
2022/08/24 06:54:38;;;;;;;9.27;8.18;;;;;;;;;;4957681;28;20031;-54
2022/08/24 06:57:05;;;;;;;9.82;8.80;;;;;;;;;;4974945;28;20023;-52
2022/08/24 06:59:32;;;;;;;11.38;8.27;;;;;;;;;;4975094;28;20120;-52
2022/08/24 07:01:58;;;;;;;9.68;8.52;;;;;;;;;;4975305;28;20038;-56
2022/08/24 07:04:25;;;;;;;10.88;8.63;;;;;;;;;;4975691;28;20035;-54
2022/08/24 07:06:51;;;;;;;11.68;8.10;;;;;;;;;;4975958;28;20030;-53
2022/08/24 07:09:17;;;;;;;9.35;8.35;;;;;;;;;;4973301;28;20031;-50
2022/08/24 07:11:43;;;;;;;9.65;8.65;;;;;;;;;;4974481;28;20082;-51
2022/08/24 07:14:09;;;;;;;10.02;8.82;;;;;;;;;;4975547;28;20035;-53
2022/08/24 07:16:34;;;;;;;9.52;8.52;;;;;;;;;;4975458;28;20114;-53
2022/08/24 07:19:01;;;;;;;9.57;8.25;;;;;;;;;;4974212;28;20054;-50
2022/08/24 07:21:27;;;;;;;10.90;8.95;;;;;;;;;;4973086;28;20433;-49
2022/08/24 07:23:55;;;;;;;10.82;9.45;;;;;;;;;;4972687;28;20058;-54
2022/08/24 07:26:22;;;;;;;10.10;9.10;;;;;;;;;;4972307;28;20050;-51
2022/08/24 07:28:49;;;;;;;11.68;10.43;;;;;;;;;;4956035;28;20031;-43
2022/08/24 07:31:15;;;;;;;16.00;9.40;;;;;;;;;;4974008;28;20077;-42
2022/08/24 07:33:40;;;;;;;11.73;10.00;;;;;;;;;;4973804;28;20018;-40
2022/08/24 07:36:06;;;;;;;11.95;9.90;;;;;;;;;;4973034;28;20034;-43
2022/08/24 07:38:32;;;;;;;13.55;10.27;;;;;;;;;;4973275;28;20026;-43
2022/08/24 07:40:59;;;;;;;13.45;9.90;;;;;;;;;;4973567;28;20030;-42
2022/08/24 07:43:24;;;;;;;15.32;11.50;;;;;;;;;;4974162;28;20379;-46
2022/08/24 07:45:50;;;;;;;14.48;11.23;;;;;;;;;;4973665;28;20035;-43
2022/08/24 07:48:16;;;;;;;13.52;10.60;;;;;;;;;;4974699;28;20026;-44
2022/08/24 07:50:42;;;;;;;15.68;10.63;;;;;;;;;;4974219;28;20516;-46
2022/08/24 07:53:08;;;;;;;15.23;11.23;;;;;;;;;;4973668;28;20058;-41
2022/08/24 07:55:33;;;;;;;16.08;10.82;;;;;;;;;;4971594;28;20027;-42
2022/08/24 07:57:59;;;;;;;14.65;10.02;;;;;;;;;;4974273;28;20044;-42
2022/08/24 08:00:25;;;;;;;13.98;9.82;;;;;;;;;;4974857;28;20085;-43
2022/08/24 08:02:50;;;;;;;11.55;8.88;;;;;;;;;;4974965;28;20072;-48
2022/08/24 08:05:20;;;;;;;13.70;9.13;;;;;;;;;;4974011;28;20022;-44
2022/08/24 08:07:46;;;;;;;14.75;9.25;;;;;;;;;;4974043;28;20372;-43
2022/08/24 08:10:13;;;;;;;11.57;9.88;;;;;;;;;;4974332;28;20035;-45
2022/08/24 08:12:39;;;;;;;11.15;9.25;;;;;;;;;;4957447;28;20053;-44
2022/08/24 08:15:09;;;;;;;10.57;9.48;;;;;;;;;;4974422;28;20022;-45
2022/08/24 08:17:36;;;;;;;12.45;8.73;;;;;;;;;;4974197;28;20110;-45
2022/08/24 08:20:05;;;;;;;14.52;8.35;;;;;;;;;;4974547;28;20047;-41
2022/08/24 08:25:15;;;;;;;8.93;7.22;;;;;;;;;;4974262;28;20169;-41
2022/08/24 08:27:40;;;;;;;9.75;7.90;;;;;;;;;;4974664;28;20030;-44
2022/08/24 08:30:06;;;;;;;9.60;7.32;;;;;;;;;;4974313;28;20355;-44
2022/08/24 08:32:32;;;;;;;13.90;7.57;;;;;;;;;;4974240;28;20023;-41
2022/08/24 08:34:58;;;;;;;8.27;7.13;;;;;;;;;;4974844;28;20037;-46
2022/08/24 08:37:25;;;;;;;13.00;7.57;;;;;;;;;;4974066;28;20425;-46
2022/08/24 08:39:51;;;;;;;11.82;7.13;;;;;;;;;;4976150;28;20078;-44
2022/08/24 08:42:40;;;;;;;12.00;7.32;;;;;;;;;;4978453;28;20030;-43
2022/08/24 08:45:14;;;;;;;8.73;7.70;;;;;;;;;;4976230;28;20027;-42
2022/08/24 08:48:03;;;;;;;8.73;7.53;;;;;;;;;;4974784;28;20022;-43
2022/08/24 08:50:57;;;;;;;8.70;7.13;;;;;;;;;;4974208;28;20079;-46
2022/08/24 08:53:42;;;;;;;7.75;6.60;;;;;;;;;;4975219;28;20038;-47
2022/08/24 08:56:11;;;;;;;8.43;7.53;;;;;;;;;;4973778;28;20027;-46
2022/08/24 08:58:46;;;;;;;11.13;6.93;;;;;;;;;;4975149;28;20062;-48
2022/08/24 09:01:35;;;;;;;10.45;6.28;;;;;;;;;;4973948;28;20031;-47
2022/08/24 09:04:24;;;;;;;8.10;6.97;;;;;;;;;;4973673;28;20030;-44
2022/08/24 09:07:02;;;;;;;8.20;7.40;;;;;;;;;;4937293;28;20110;-45
2022/08/24 09:09:46;;;;;;;11.50;7.32;;;;;;;;;;4956378;28;20030;-45
2022/08/24 09:12:19;;;;;;;9.18;7.03;;;;;;;;;;4973954;28;20386;-46
2022/08/24 09:15:12;;;;;;;8.38;6.93;;;;;;;;;;4974011;28;20054;-44
2022/08/24 09:18:05;;;;;;;8.75;7.22;;;;;;;;;;4974228;28;20031;-44
2022/08/24 09:21:02;;;;;;;11.65;6.78;;;;;;;;;;4939822;28;20045;-42
2022/08/24 09:23:59;;;;;;;5.65;4.47;;;;;;;;;;4973837;28;20430;-43
2022/08/24 09:27:11;;;;;;;12.35;7.93;;;;;;;;;;4972074;28;20046;-44
2022/08/24 09:29:58;;;;;;;11.52;8.45;;;;;;;;;;4964723;28;20043;-43
2022/08/24 09:32:34;;;;;;;8.95;6.75;;;;;;;;;;4974933;28;20038;-42
2022/08/24 09:35:08;;;;;;;12.65;9.13;;;;;;;;;;4973865;28;20082;-45
2022/08/24 09:37:45;;;;;;;12.05;9.40;;;;;;;;;;4974010;28;20402;-43
2022/08/24 09:40:17;;;;;;;12.30;8.70;;;;;;;;;;4973538;28;20058;-43
2022/08/24 09:43:01;;;;;;;14.45;9.80;;;;;;;;;;4973668;28;20039;-49
2022/08/24 09:46:02;;;;;;;15.77;9.88;;;;;;;;;;4973314;28;20026;-43
2022/08/24 09:49:13;;;;;;;15.98;9.52;;;;;;;;;;4956177;28;20043;-45
2022/08/24 09:51:41;;;;;;;13.02;9.50;;;;;;;;;;4953692;28;20039;-44
2022/08/24 09:54:35;;;;;;;13.00;9.23;;;;;;;;;;4973062;28;20109;-46
2022/08/24 09:57:28;;;;;;;18.58;8.98;;;;;;;;;;4973309;28;20058;-42
2022/08/24 10:00:28;;;;;;;15.75;10.57;;;;;;;;;;4972741;28;20490;-44
2022/08/24 10:03:05;;;;;;;16.58;11.10;;;;;;;;;;4976747;28;20030;-43
2022/08/24 10:06:09;;;;;;;15.85;6.43;;;;;;;;;;4976707;28;20031;-47
2022/08/24 10:08:53;;;;;;;15.57;10.27;;;;;;;;;;4976733;28;20031;-43
2022/08/24 10:11:44;;;;;;;17.40;13.02;;;;;;;;;;4976265;28;20084;-42
2022/08/24 10:14:56;;;;;;;18.48;10.85;;;;;;;;;;4976723;28;20085;-44
2022/08/24 10:17:32;;;;;;;16.02;10.48;;;;;;;;;;4963602;28;20439;-41
2022/08/24 10:20:29;;;;;;;17.92;12.80;;;;;;;;;;4976807;28;20027;-47
2022/08/24 10:23:06;;;;;;;16.80;12.27;;;;;;;;;;4946185;28;20461;-42
2022/08/24 10:25:35;;;;;;;11.05;7.35;;;;;;;;;;4976539;28;20042;-47
2022/08/24 10:28:19;;;;;;;11.43;7.45;;;;;;;;;;4976394;28;20026;-46
2022/08/24 10:31:02;;;;;;;16.80;10.73;;;;;;;;;;4958881;28;20119;-45
2022/08/24 10:33:48;;;;;;;15.27;9.75;;;;;;;;;;4976393;28;20034;-47
2022/08/24 10:36:47;;;;;;;13.93;5.85;;;;;;;;;;4976640;28;20577;-47
2022/08/24 10:39:41;;;;;;;16.70;12.02;;;;;;;;;;4959139;28;20033;-48
2022/08/24 10:45:24;;;;;;;18.77;10.60;;;;;;;;;;4976126;28;20093;-49
2022/08/24 10:48:20;;;;;;;22.08;12.63;;;;;;;;;;4975976;28;20018;-44
2022/08/24 10:50:57;;;;;;;16.25;9.82;;;;;;;;;;4975864;28;20470;-48
2022/08/24 10:53:26;;;;;;;18.70;11.75;;;;;;;;;;4975965;28;20023;-45
2022/08/24 10:56:48;;;;;;;17.10;12.07;;;;;;;;;;4977169;28;20029;-43
2022/08/24 10:59:57;;;;;;;18.65;12.10;;;;;;;;;;4925374;28;20035;-43
2022/08/24 11:02:29;;;;;;;19.40;14.25;;;;;;;;;;4932672;28;20038;-46
2022/08/24 11:05:07;;;;;;;21.00;13.18;;;;;;;;;;4976084;28;20363;-47
2022/08/24 11:07:33;;;;;;;17.60;12.63;;;;;;;;;;4975959;28;20037;-48
2022/08/24 11:10:02;;;;;;;19.50;13.93;;;;;;;;;;4975427;28;20043;-46
2022/08/24 11:12:41;;;;;;;22.10;13.33;;;;;;;;;;4974819;28;20019;-49
2022/08/24 11:15:26;;;;;;;20.83;13.63;;;;;;;;;;4975432;28;20265;-42
2022/08/24 11:18:03;;;;;;;20.25;13.50;;;;;;;;;;4975972;28;20031;-39
2022/08/24 11:20:38;;;;;;;23.92;13.75;;;;;;;;;;4975703;28;20031;-40
2022/08/24 11:23:14;;;;;;;26.58;14.95;;;;;;;;;;4975043;28;20093;-38
2022/08/24 11:25:56;;;;;;;15.88;10.65;;;;;;;;;;4975129;28;20541;-40
2022/08/24 11:28:59;;;;;;;19.80;12.25;;;;;;;;;;4975490;28;20435;-38
2022/08/24 11:31:37;;;;;;;23.45;14.18;;;;;;;;;;4935851;28;20043;-37
2022/08/24 11:34:19;;;;;;;26.85;14.07;;;;;;;;;;4973581;28;20031;-37
2022/08/24 11:36:44;;;;;;;21.65;13.23;;;;;;;;;;4974593;28;20390;-37
2022/08/24 11:39:22;;;;;;;21.02;14.20;;;;;;;;;;4974938;28;20030;-39
2022/08/24 11:41:53;;;;;;;22.70;13.52;;;;;;;;;;4974163;28;20022;-42
2022/08/24 11:44:36;;;;;;;20.70;13.18;;;;;;;;;;4974730;28;20030;-48
2022/08/24 11:47:19;;;;;;;21.77;14.70;;;;;;;;;;4973634;28;20030;-41
2022/08/24 11:50:01;;;;;;;28.23;19.38;;;;;;;;;;4973672;28;20355;-42
2022/08/24 11:52:35;;;;;;;21.95;14.13;;;;;;;;;;4973498;28;20054;-39
2022/08/24 11:55:16;;;;;;;20.80;14.93;;;;;;;;;;4973415;28;20031;-41
2022/08/24 11:58:01;;;;;;;25.60;14.57;;;;;;;;;;4973440;28;20030;-45
2022/08/24 12:00:37;;;;;;;25.05;17.20;;;;;;;;;;4973285;28;20022;-40
2022/08/24 12:03:22;;;;;;;20.98;14.20;;;;;;;;;;4973200;28;20027;-39
2022/08/24 12:06:06;;;;;;;27.67;18.55;;;;;;;;;;4973362;28;20034;-39
2022/08/24 12:08:53;;;;;;;21.33;13.38;;;;;;;;;;4972769;28;20486;-42
2022/08/24 12:11:32;;;;;;;28.73;18.88;;;;;;;;;;4972942;28;20386;-42
2022/08/24 12:14:15;;;;;;;23.17;15.27;;;;;;;;;;4973251;28;20030;-46
2022/08/24 12:17:03;;;;;;;29.75;20.50;;;;;;;;;;4973326;28;20023;-45
2022/08/24 12:19:35;;;;;;;30.58;19.23;;;;;;;;;;4974035;28;20378;-44
2022/08/24 12:22:04;;;;;;;24.40;17.67;;;;;;;;;;4974092;28;20034;-43
2022/08/24 12:24:43;;;;;;;27.27;16.63;;;;;;;;;;4973284;28;20035;-41
2022/08/24 12:27:33;;;;;;;27.20;16.70;;;;;;;;;;4974564;28;20035;-46
2022/08/24 12:30:07;;;;;;;29.05;19.25;;;;;;;;;;4964608;28;20038;-43
2022/08/24 12:32:41;;;;;;;27.55;19.25;;;;;;;;;;4973919;28;20552;-47
2022/08/24 12:35:14;;;;;;;27.90;17.52;;;;;;;;;;4974072;28;20082;-47
2022/08/24 12:37:46;;;;;;;24.60;18.15;;;;;;;;;;4974140;28;20382;-42
2022/08/24 12:40:33;;;;;;;27.48;18.88;;;;;;;;;;4974366;28;20037;-47
2022/08/24 12:43:13;;;;;;;27.85;18.45;;;;;;;;;;4974081;28;20030;-44
2022/08/24 12:45:39;;;;;;;24.40;17.40;;;;;;;;;;4974157;28;20019;-43
2022/08/24 12:48:28;;;;;;;20.42;12.43;;;;;;;;;;4973993;28;20034;-47
2022/08/24 12:51:22;;;;;;;22.10;15.05;;;;;;;;;;4974282;28;20031;-43
2022/08/24 12:54:06;;;;;;;25.30;16.27;;;;;;;;;;4974154;28;20118;-44
2022/08/24 12:57:02;;;;;;;22.98;15.35;;;;;;;;;;4973285;28;20026;-43
2022/08/24 12:59:42;;;;;;;18.77;12.70;;;;;;;;;;4973896;28;20023;-47
2022/08/24 13:02:16;;;;;;;21.88;15.98;;;;;;;;;;4973578;28;20714;-47
2022/08/24 13:04:57;;;;;;;16.55;12.23;;;;;;;;;;4973333;28;20062;-41
2022/08/24 13:07:22;;;;;;;20.73;14.70;;;;;;;;;;4974045;28;20038;-42
2022/08/24 13:10:05;;;;;;;21.77;14.93;;;;;;;;;;4973905;28;20471;-41
2022/08/24 13:12:37;;;;;;;18.02;13.60;;;;;;;;;;4973695;28;20612;-47
2022/08/24 13:15:30;;;;;;;20.17;14.80;;;;;;;;;;4973901;28;20402;-41
2022/08/24 13:18:08;;;;;;;17.13;12.05;;;;;;;;;;4973934;28;20058;-46
2022/08/24 13:20:33;;;;;;;18.42;14.02;;;;;;;;;;4973438;28;20031;-42
2022/08/24 13:23:01;;;;;;;17.88;12.48;;;;;;;;;;4973821;28;20035;-46
2022/08/24 13:26:17;;;;;;;18.77;12.80;;;;;;;;;;4973195;28;20043;-45
2022/08/24 13:28:47;;;;;;;17.52;11.25;;;;;;;;;;4968009;28;20042;-44
2022/08/24 13:31:24;;;;;;;19.00;12.48;;;;;;;;;;4973755;28;20110;-44
2022/08/24 13:33:56;;;;;;;17.30;11.32;;;;;;;;;;4973402;28;20109;-44
2022/08/24 13:36:30;;;;;;;17.92;12.90;;;;;;;;;;4975114;28;20029;-43
2022/08/24 13:39:14;;;;;;;16.98;11.10;;;;;;;;;;4977265;28;20537;-42
2022/08/24 13:41:53;;;;;;;17.00;11.80;;;;;;;;;;4977283;28;20398;-43
2022/08/24 13:44:40;;;;;;;15.00;11.48;;;;;;;;;;4977172;28;20038;-45
2022/08/24 13:47:15;;;;;;;18.35;12.20;;;;;;;;;;4977151;28;20030;-42
2022/08/24 13:50:07;;;;;;;16.60;10.77;;;;;;;;;;4977100;28;20118;-50
2022/08/24 13:53:00;;;;;;;18.20;11.55;;;;;;;;;;4976941;28;20077;-44
2022/08/24 13:55:52;;;;;;;14.68;11.15;;;;;;;;;;4977197;28;20073;-44
2022/08/24 13:58:23;;;;;;;13.45;10.07;;;;;;;;;;4977150;28;20023;-43
2022/08/24 14:01:22;;;;;;;16.25;11.48;;;;;;;;;;4976779;28;20031;-46
2022/08/24 14:04:08;;;;;;;13.45;10.38;;;;;;;;;;4976450;28;20097;-43
2022/08/24 14:07:13;;;;;;;11.82;8.30;;;;;;;;;;4976033;28;20031;-46
2022/08/24 14:10:01;;;;;;;14.45;9.65;;;;;;;;;;4975782;28;20034;-44
2022/08/24 14:12:33;;;;;;;14.85;10.05;;;;;;;;;;4974964;28;20035;-46
2022/08/24 14:15:14;;;;;;;11.50;8.43;;;;;;;;;;4975527;28;20031;-44
2022/08/24 14:17:52;;;;;;;12.00;7.85;;;;;;;;;;4976072;28;20031;-42
2022/08/24 14:20:41;;;;;;;9.38;7.50;;;;;;;;;;4976203;28;20042;-42
2022/08/24 14:23:22;;;;;;;10.85;8.07;;;;;;;;;;4975977;28;20090;-41
2022/08/24 14:25:50;;;;;;;13.43;8.57;;;;;;;;;;4975877;28;20122;-44
2022/08/24 14:28:39;;;;;;;11.90;8.25;;;;;;;;;;4976444;28;20030;-48
2022/08/24 14:31:16;;;;;;;11.48;7.78;;;;;;;;;;4976354;28;20105;-46
2022/08/24 14:33:58;;;;;;;9.50;7.35;;;;;;;;;;4976305;28;20489;-44
2022/08/24 14:36:42;;;;;;;8.32;6.32;;;;;;;;;;4976257;28;20027;-41
2022/08/24 14:39:23;;;;;;;7.90;6.57;;;;;;;;;;4976310;28;20521;-41
2022/08/24 14:41:56;;;;;;;8.68;6.20;;;;;;;;;;4976123;28;20039;-42
2022/08/24 14:44:42;;;;;;;7.70;6.65;;;;;;;;;;4976115;28;20031;-41
2022/08/24 14:47:58;;;;;;;8.10;6.95;;;;;;;;;;4972700;28;20030;-41
2022/08/24 14:50:43;;;;;;;8.05;5.90;;;;;;;;;;4942653;28;20050;-44
2022/08/24 14:53:43;;;;;;;7.20;5.75;;;;;;;;;;4975778;28;20556;-42
2022/08/24 14:56:36;;;;;;;7.10;6.18;;;;;;;;;;4976002;28;20035;-41
2022/08/24 14:59:29;;;;;;;8.70;6.00;;;;;;;;;;4975746;28;20049;-42
2022/08/24 15:02:17;;;;;;;9.90;6.20;;;;;;;;;;4975754;28;20038;-43
2022/08/24 15:04:54;;;;;;;6.18;5.43;;;;;;;;;;4975829;28;20036;-41
2022/08/24 15:07:19;;;;;;;7.03;5.72;;;;;;;;;;4975687;28;20089;-41
2022/08/24 15:09:45;;;;;;;9.57;6.30;;;;;;;;;;4975934;28;20031;-41
2022/08/24 15:12:32;;;;;;;8.93;6.45;;;;;;;;;;4975082;28;20598;-42